Aérodrome :
LOGIN :

S'inscrire | Disclaimer

   EN    FR    IT 

 










Légende :    VFR   VFR Marginal   IFR   IFR Intensif   IFR Très Intensif
Visi : 
Plafond : 
>= 8 km
>= 3000ft
5 à 8 km
1000 à 3000 ft
1500m à 5 km
500 à 1000 ft
800 à 1500m
200 à 500 ft
< 800m
< 200 ft
Symboles :   Orages  Brouillard  Fortes neiges  Fortes précipitations  Vent > 20 kt
SIGMETs :   Divers  Orages  Givrage  Turbulence  Onde Orograph.  Cendres Volcan.







- Altitude de l'aérodrome : 93 ft
- Code IATA : XRY


LEJR - Jerez

DERNIER METAR :
  • 191800Z 14004KT 9999 FEW018 SCT048 16/14 Q1012

METARs EXPIRÉS :
  • 191730Z 16007KT 130V190 9999 -RA FEW018 BKN048 16/13 Q1011
  • 191700Z 14010KT 080V170 9999 4000SE -RA BKN048 FEW055TCU 16/14 Q1011
  • 191630Z 18007KT 140V210 9999 4000E -RA BKN047 FEW050TCU 17/13 Q1011
  • 191600Z 18007KT 150V210 9999 BKN045 BKN058 18/13 Q1011
  • 191530Z VRB02KT 9999 BKN054 BKN065 21/09 Q1010

TAF TAF LEJR
Valide du 19 à 18h jusqu'au 20 à 18h UTC


191700Z 1918/2018 09006KT 9999 SCT030 TX20/2014Z TN13/2006Z
TEMPO 2002/2015 3000 SHRA BKN025CB
Pas de NOTAMs connus pour ce terrain.
2 SIGMETs publiés pour la FIR Madrid (LECM) :
 
Turbulence forte
LECM SIGMET 8 VALID 191700/191900 LEVA
LECM MADRID UIR SEV TURB FCST WI N3720 W00727 - N3930 W00438 - N3842 W00339 - N3548 W00718 - N3720 W00727 FL270/350 MOV NE NC=
Annulation du SIGMET 18
LECM SIGMET 1 VALID 190150/192200 LEVA
LECM MADRID UIR CNL SIGMET 18 VALID 182039/192200=



MET'MAP, la Météo Aéronautique d'un coup d'oeil ! - Copyright ORBIFLY Décembre 2007 - Disclaimer

ORBIFLY MET'MAP TEAM :

Programmation & Développement : Alexandra Zaïnal
Conception & Développement : Baudouin d'Aumeries
Co-Programmation & Développement : Marc-Olivier Méhu
Soutien technique & logistique : Manuel Goepfert

Contact : metmap@orbifly.com




SOURCES & CREDITS :

   NOAA